Latest Weather Observations for Snowtown

IDS60801

Issued at 4:31 am CDT Wednesday 19 December 2018 (issued every 10 minutes, with the page automatically refreshed every 10 minutes)

About weather observations | Map of weather stations | Latest weather observations for SA | Other Formats
Station Details ID: 021133 Name: RAYVILLE PARK Lat: -33.77 Lon: 138.22 Height: 109.1 m
Data from the previous 72 hours. | See also: Recent months at Snowtown
Date/Time
CDT
Temp
°C
App
Temp
°C
Dew
Point
°C
Rel
Hum
%
Delta-T
°C
Wind Press
QNH
hPa
Press
MSL
hPa
Rain since
9am
mm
Dir  Spd
km/h
Gust
km/h
Spd
kts
Gust
kts
19/04:30am 23.3 20.7 9.3 41 7.6 S 13 19 7 10 1006.7 1006.3 0.0
19/04:00am 23.1 19.2 10.9 46 6.8 SE 22 32 12 17 1006.7 1006.3 0.0
19/03:30am 25.8 21.4 7.4 31 9.8 SE 20 30 11 16 1007.9 1007.5 0.0
19/03:00am 25.4 21.3 8.0 33 9.4 S 19 33 10 18 1007.6 1007.2 0.0
19/02:30am 25.7 22.8 8.2 33 9.5 WSW 13 19 7 10 1007.3 1006.9 0.0
19/02:00am 26.2 22.6 8.2 32 9.7 ENE 17 33 9 18 1007.1 1006.7 0.0
19/01:54am 26.0 20.3 8.5 33 9.5 ENE 28 48 15 26 1007.0 1006.6 0.0
19/01:30am 26.1 21.6 8.6 33 9.5 ENE 22 39 12 21 1007.0 1006.6 0.0
19/01:00am 25.8 22.5 9.6 36 8.9 NE 17 26 9 14 1007.9 1007.5 0.0
19/12:30am 25.7 22.9 9.9 37 8.8 ENE 15 22 8 12 1008.7 1008.3 0.0
19/12:00am 25.4 21.9 10.8 40 8.2 SE 20 32 11 17 1009.4 1009.0 0.0
 
Date/Time
CDT
Temp
°C
App
Temp
°C
Dew
Point
°C
Rel
Hum
%
Delta-T
°C
Wind Press
QNH
hPa
Press
MSL
hPa
Rain since
9am
mm
Dir  Spd
km/h
Gust
km/h
Spd
kts
Gust
kts
18/11:30pm 24.7 21.9 12.6 47 7.0 SSW 19 28 10 15 1010.1 1009.7 0.0
18/11:00pm 25.1 21.6 12.3 45 7.4 S 22 30 12 16 1010.9 1010.5 0.0
18/10:30pm 25.3 22.2 12.2 44 7.6 SSW 20 28 11 15 1011.0 1010.7 0.0
18/10:00pm 25.8 22.8 11.9 42 8.0 SSW 19 26 10 14 1011.0 1010.7 0.0
18/09:30pm 26.8 23.4 11.3 38 8.9 S 20 26 11 14 1010.9 1010.5 0.0
18/09:00pm 27.8 23.7 10.1 33 10.0 S 22 30 12 16 1011.0 1010.7 0.0
18/08:30pm 28.3 24.3 10.5 33 10.1 S 22 32 12 17 1010.5 1010.1 0.0
18/08:00pm 29.7 24.0 11.2 31 10.7 SSE 32 43 17 23 1010.1 1009.7 0.0
18/07:30pm 29.1 25.3 12.5 36 9.8 SSW 24 32 13 17 1009.5 1009.1 0.0
18/07:00pm 27.1 23.8 16.1 51 6.8 SSW 28 37 15 20 1009.6 1009.2 0.0
18/06:30pm 28.1 23.7 15.1 45 8.0 SSW 32 43 17 23 1009.2 1008.8 0.0
18/06:00pm 32.1 27.3 12.8 30 11.6 SSW 30 39 16 21 1009.0 1008.6 0.0
18/05:30pm 34.0 27.8 9.9 23 13.9 SSE 33 43 18 23 1008.6 1008.2 0.0
18/05:00pm 34.7 29.0 9.9 22 14.4 S 30 41 16 22 1008.1 1007.7 0.0
18/04:30pm 33.4 27.7 11.3 26 13.0 S 32 44 17 24 1008.6 1008.2 0.0
18/04:00pm 34.6 28.5 11.7 25 13.6 S 35 44 19 24 1009.1 1008.7 0.0
18/03:30pm 32.9 27.4 12.5 29 12.2 S 33 46 18 25 1009.5 1009.1 0.0
18/03:00pm 32.1 28.1 15.1 35 10.5 S 30 39 16 21 1010.1 1009.7 0.0
18/02:30pm 29.2 25.4 16.7 46 7.9 SSW 32 41 17 22 1010.8 1010.4 0.0
18/02:00pm 27.0 22.6 15.7 50 6.9 SSW 33 46 18 25 1011.1 1010.8 0.0
18/01:53pm 27.2 22.6 15.2 47 7.3 SSW 33 46 18 25 1010.8 1010.4 0.0
18/01:36pm 32.2 28.2 11.9 29 12.0 SSE 24 50 13 27 1010.4 1010.0 0.0
18/01:30pm 34.3 30.5 7.4 19 15.0 SSE 17 30 9 16 1010.3 1009.9 0.0
18/01:00pm 34.9 32.9 10.0 22 14.5 SSE 11 19 6 10 1010.2 1009.8 0.0
18/12:30pm 34.5 31.6 9.7 22 14.3 SE 15 24 8 13 1010.4 1010.0 0.0
18/12:00pm 33.2 30.8 9.9 24 13.4 ESE 13 24 7 13 1010.9 1010.5 0.0
18/11:30am 32.8 31.0 10.8 26 12.8 NE 11 20 6 11 1011.1 1010.8 0.0
18/11:00am 31.6 29.2 11.4 29 11.8 NE 15 24 8 13 1011.4 1011.1 0.0
18/10:30am 30.3 28.4 11.8 32 10.8 NE 13 24 7 13 1011.7 1011.4 0.0
18/10:00am 28.3 27.8 12.6 38 9.2 SE 7 15 4 8 1012.1 1011.8 0.0
18/09:30am 27.0 26.6 14.1 45 7.7 S 9 13 5 7 1012.2 1011.9 0.0
18/09:00am 25.5 24.9 13.4 47 7.1 SE 9 15 5 8 1012.4 1012.1 0.0
18/08:30am 24.7 24.4 13.3 49 6.7 SE 7 13 4 7 1012.1 1011.8 0.0
18/08:00am 22.2 22.7 14.1 60 4.8 S 4 7 2 4 1012.2 1011.9 0.0
18/07:30am 20.3 20.4 14.4 69 3.5 SSW 7 9 4 5 1012.1 1011.8 0.0
18/07:00am 19.1 18.0 14.4 74 2.7 SSW 13 17 7 9 1011.9 1011.6 0.0
18/06:30am 17.2 16.0 13.9 81 1.9 SW 13 17 7 9 1011.6 1011.3 0.0
18/06:00am 17.0 15.2 13.3 79 2.1 SW 15 17 8 9 1011.5 1011.2 0.0
18/05:30am 16.4 15.6 12.9 80 2.0 SSW 9 11 5 6 1011.1 1010.8 0.0
18/05:00am 16.3 16.1 13.0 81 1.8 SW 6 6 3 3 1010.8 1010.4 0.0
18/04:30am 16.5 16.2 12.8 79 2.1 W 6 7 3 4 1010.5 1010.1 0.0
18/04:00am 16.8 16.6 12.9 78 2.2 NW 6 9 3 5 1010.0 1009.6 0.0
18/03:30am 17.8 18.6 12.5 71 3.0 CALM 0 0 0 0 1010.0 1009.6 0.0
18/03:00am 19.7 19.8 13.9 69 3.4 N 6 9 3 5 1009.8 1009.4 0.0
18/02:30am 20.0 19.0 13.5 66 3.7 N 11 15 6 8 1009.6 1009.2 0.0
18/02:00am 20.9 18.3 13.8 64 4.1 NNE 20 28 11 15 1009.3 1008.9 0.0
18/01:30am 20.5 19.8 14.2 67 3.7 NE 11 19 6 10 1009.7 1009.3 0.0
18/01:00am 20.9 21.3 13.8 64 4.1 NE 4 7 2 4 1010.0 1009.6 0.0
18/12:30am 20.1 20.9 14.7 71 3.2 S 4 19 2 10 1010.4 1010.0 0.0
18/12:00am 18.4 18.1 14.5 78 2.3 SW 9 13 5 7 1010.7 1010.3 0.0
 
Date/Time
CDT
Temp
°C
App
Temp
°C
Dew
Point
°C
Rel
Hum
%
Delta-T
°C
Wind Press
QNH
hPa
Press
MSL
hPa
Rain since
9am
mm
Dir  Spd
km/h
Gust
km/h
Spd
kts
Gust
kts
17/11:30pm 18.7 17.4 14.8 78 2.3 WSW 15 19 8 10 1011.1 1010.8 0.0
17/11:00pm 18.7 18.0 15.4 81 1.9 SW 13 17 7 9 1011.2 1010.9 0.0
17/10:30pm 19.4 18.9 15.9 80 2.1 SSW 13 17 7 9 1011.5 1011.2 0.0
17/10:00pm 19.9 18.7 16.0 78 2.3 SSW 17 22 9 12 1011.6 1011.3 0.0
17/09:30pm 20.0 18.3 16.2 79 2.3 SSW 20 26 11 14 1011.4 1011.1 0.0
17/09:00pm 20.3 18.5 15.9 76 2.6 SSW 20 24 11 13 1011.4 1011.1 0.0
17/08:30pm 21.1 19.1 15.6 71 3.3 SSW 20 28 11 15 1011.0 1010.7 0.0
17/08:00pm 22.3 19.2 15.6 66 4.0 SSW 26 35 14 19 1010.8 1010.4 0.0
17/07:30pm 23.9 20.2 15.1 58 5.3 SSW 28 37 15 20 1010.4 1010.0 0.0
17/07:00pm 24.7 21.3 14.8 54 5.9 SSW 26 35 14 19 1010.1 1009.7 0.0
17/06:30pm 25.3 21.0 15.3 54 6.1 SSW 32 43 17 23 1009.7 1009.3 0.0
17/06:00pm 26.8 22.3 14.9 48 7.2 SSW 32 43 17 23 1009.5 1009.1 0.0
17/05:30pm 26.8 22.3 14.9 48 7.2 SSW 32 41 17 22 1009.7 1009.3 0.0
17/05:00pm 28.0 23.5 13.9 42 8.4 S 30 39 16 21 1009.9 1009.5 0.0
17/04:30pm 29.7 25.1 12.2 34 10.3 S 28 37 15 20 1010.1 1009.7 0.0
17/04:00pm 29.4 25.2 12.3 34 10.0 S 26 35 14 19 1010.3 1009.9 0.0
17/03:30pm 29.5 24.4 12.0 34 10.2 S 30 41 16 22 1010.4 1010.0 0.0
17/03:00pm 30.4 26.6 7.6 24 12.5 SE 17 28 9 15 1010.6 1010.2 0.0
17/02:30pm 30.2 26.6 9.7 28 11.6 SSE 19 33 10 18 1011.0 1010.7 0.0
17/02:00pm 28.1 25.1 10.8 34 9.9 SSE 17 30 9 16 1011.6 1011.3 0.0
17/01:30pm 28.1 25.7 12.8 38 9.0 S 17 26 9 14 1011.9 1011.6 0.0
17/01:00pm 26.6 25.2 13.3 43 7.8 S 13 20 7 11 1012.5 1012.2 0.0
17/12:30pm 26.7 26.8 13.8 45 7.7 SSW 6 17 3 9 1012.6 1012.3 0.0
17/12:00pm 25.1 23.9 13.9 49 6.6 S 13 19 7 10 1013.0 1012.6 0.0
17/11:30am 23.6 22.5 14.3 56 5.5 SSW 13 19 7 10 1013.2 1012.8 0.0
17/11:00am 22.6 20.8 13.4 56 5.3 SE 15 24 8 13 1013.1 1012.7 0.0
17/10:30am 21.3 19.7 14.0 63 4.3 SSE 15 22 8 12 1013.2 1012.8 0.0
17/10:00am 20.5 19.1 13.5 64 4.0 SE 13 20 7 11 1013.0 1012.6 0.0
17/09:30am 20.2 18.7 14.3 69 3.4 ESE 15 26 8 14 1013.1 1012.7 0.0
17/09:00am 18.8 17.2 13.9 73 2.8 E 15 20 8 11 1013.0 1012.6 0.0
17/08:30am 18.2 17.6 14.7 80 2.0 ESE 11 17 6 9 1012.5 1012.2 0.0
17/08:00am 17.5 16.0 14.2 81 1.9 SE 15 20 8 11 1012.2 1011.9 0.0
17/07:30am 17.5 17.2 14.4 82 1.8 SE 9 13 5 7 1011.9 1011.6 0.0
17/07:00am 17.0 16.0 14.5 85 1.4 ESE 13 17 7 9 1011.6 1011.3 0.0
17/06:30am 16.7 15.2 14.3 86 1.4 ESE 15 19 8 10 1011.3 1011.0 0.0
17/06:00am 16.6 15.6 14.6 88 1.2 SE 13 19 7 10 1011.4 1011.1 0.0
17/05:30am 16.7 14.5 14.5 87 1.3 SSE 19 28 10 15 1011.5 1011.2 0.0
17/05:00am 16.6 14.3 14.6 88 1.2 SSE 20 26 11 14 1011.6 1011.3 0.0
17/04:30am 16.6 14.5 14.8 89 1.0 S 19 24 10 13 1011.4 1011.1 0.0
17/04:00am 16.7 15.1 15.1 90 0.9 S 17 20 9 11 1011.4 1011.1 0.0
17/03:30am 16.9 15.4 15.2 90 1.0 S 17 20 9 11 1010.9 1010.5 0.0
17/03:00am 16.4 16.2 15.6 95 0.5 SSW 11 17 6 9 1010.9 1010.5 0.0
17/02:30am 14.6 14.1 13.8 95 0.5 SW 9 11 5 6 1011.0 1010.7 0.0
17/02:00am 14.6 14.6 13.6 94 0.6 SSW 6 7 3 4 1011.1 1010.8 0.0
17/01:30am 15.0 14.9 14.0 94 0.6 SSW 7 7 4 4 1011.3 1011.0 0.0
17/01:00am 15.2 15.2 13.7 91 0.8 S 6 7 3 4 1011.6 1011.3 0.0
17/12:30am 16.4 16.3 14.9 91 0.9 S 9 20 5 11 1011.9 1011.6 0.0
17/12:00am 16.8 16.7 15.0 89 1.0 S 9 13 5 7 1012.1 1011.8 0.0
 
Date/Time
CDT
Temp
°C
App
Temp
°C
Dew
Point
°C
Rel
Hum
%
Delta-T
°C
Wind Press
QNH
hPa
Press
MSL
hPa
Rain since
9am
mm
Dir  Spd
km/h
Gust
km/h
Spd
kts
Gust
kts
16/11:30pm 17.7 17.0 15.3 86 1.4 S 13 19 7 10 1012.1 1011.8 0.0
16/11:00pm 18.1 16.9 15.0 82 1.8 SSW 15 20 8 11 1011.9 1011.6 0.0
16/10:30pm 18.5 18.0 14.8 79 2.2 S 11 17 6 9 1011.4 1011.1 0.0
16/10:00pm 19.1 17.0 14.8 76 2.5 S 19 24 10 13 1011.2 1010.9 0.0
16/09:30pm 19.7 17.5 14.9 74 2.8 S 20 26 11 14 1011.0 1010.7 0.0
16/09:00pm 19.8 17.6 15.0 74 2.8 S 20 30 11 16 1010.5 1010.1 0.0
16/08:30pm 20.0 16.8 15.2 74 2.8 SSW 26 37 14 20 1010.2 1009.8 0.0
16/08:00pm 20.4 17.2 15.4 73 3.0 SSW 26 33 14 18 1009.8 1009.4 0.0
16/07:30pm 21.6 18.0 15.2 67 3.8 SSW 28 35 15 19 1009.2 1008.8 0.0
16/07:00pm 23.5 20.5 14.8 58 5.2 SSW 24 32 13 17 1008.9 1008.5 0.0
16/06:30pm 25.1 22.9 14.9 53 6.1 SSW 20 28 11 15 1008.4 1008.0 0.0
16/06:00pm 24.8 21.9 14.0 51 6.4 SW 22 30 12 16 1008.3 1007.9 0.0
16/05:30pm 24.8 24.3 13.7 50 6.6 SSW 9 17 5 9 1008.0 1007.6 0.0
16/05:00pm 24.7 23.4 13.6 50 6.5 S 13 19 7 10 1007.9 1007.5 0.0
16/04:30pm 25.0 23.8 13.9 50 6.6 S 13 20 7 11 1008.0 1007.6 0.0
16/04:00pm 25.1 23.1 13.9 49 6.6 SW 17 26 9 14 1008.3 1007.9 0.0
16/03:30pm 24.0 22.4 13.8 53 6.0 WSW 15 24 8 13 1008.6 1008.2 0.0
16/03:00pm 24.3 22.0 14.1 53 6.0 WSW 19 24 10 13 1008.5 1008.1 0.0
16/02:30pm 24.4 21.9 14.2 53 6.1 WSW 20 32 11 17 1008.6 1008.2 0.0
16/02:00pm 24.8 22.1 14.6 53 6.1 WSW 22 35 12 19 1008.9 1008.5 0.0
16/01:30pm 23.4 20.5 15.2 60 4.9 SW 24 32 13 17 1008.9 1008.5 0.0
16/01:00pm 22.8 19.5 16.1 66 4.1 WSW 28 39 15 21 1009.3 1008.9 0.0
16/12:30pm 20.2 15.9 15.4 74 2.9 SW 32 43 17 23 1009.7 1009.3 0.0
16/12:00pm 20.9 16.9 15.2 70 3.4 WSW 30 35 16 19 1009.7 1009.3 0.0
16/11:30am 20.6 17.1 15.4 72 3.1 WSW 28 35 15 19 1009.8 1009.4 0.0
16/11:00am 19.8 16.6 15.2 75 2.7 WSW 26 32 14 17 1009.7 1009.3 0.0
16/10:30am 19.8 17.9 15.7 77 2.4 WSW 20 30 11 16 1009.4 1009.0 0.0
16/10:00am 19.4 17.0 15.3 77 2.4 SW 22 30 12 16 1009.1 1008.7 0.0
16/09:30am 19.1 17.1 15.0 77 2.4 WSW 19 28 10 15 1008.9 1008.5 0.0
16/09:00am 18.5 16.9 15.0 80 2.1 WSW 17 24 9 13 1008.8 1008.4 0.2
16/08:30am 18.0 16.2 15.4 85 1.5 WSW 19 24 10 13 1008.4 1008.0 0.2
16/08:00am 17.2 15.7 15.4 89 1.1 SW 17 20 9 11 1008.4 1008.0 0.2
16/07:30am 17.0 15.5 15.3 90 1.0 WSW 17 22 9 12 1008.0 1007.6 0.2
16/07:00am 16.6 16.7 15.5 93 0.6 SW 9 15 5 8 1007.7 1007.3 0.2
16/06:30am 16.6 15.4 15.0 90 0.9 SW 15 20 8 11 1007.4 1007.0 0.2
16/06:00am 16.5 14.9 15.0 91 0.9 W 17 20 9 11 1006.9 1006.5 0.2
16/05:30am 16.3 14.9 14.5 89 1.0 W 15 20 8 11 1006.7 1006.3 0.2
16/05:00am 16.7 15.1 14.9 89 1.0 W 17 22 9 12 1006.8 1006.4 0.2

Other Formats:

Comma delimited format used in spreadsheet applications
http://www.bom.gov.au/fwo/IDS60801/IDS60801.95670.axf

JavaScript Object Notation format (JSON) in row-major order
http://www.bom.gov.au/fwo/IDS60801/IDS60801.95670.json